createdAt,value
2019-03-15T00:02:48.207Z,9.20
2019-03-15T00:05:36.978Z,9.20
2019-03-15T00:08:26.968Z,9.30
2019-03-15T00:11:16.840Z,9.30
2019-03-15T00:14:07.187Z,9.30
2019-03-15T00:16:56.622Z,9.30
2019-03-15T00:19:45.934Z,9.20
2019-03-15T00:22:35.275Z,9.20
2019-03-15T00:25:24.711Z,9.20
2019-03-15T00:28:14.569Z,9.20
2019-03-15T00:31:04.113Z,9.20
2019-03-15T00:33:54.027Z,9.20
2019-03-15T00:36:43.063Z,9.20
2019-03-15T00:39:31.984Z,9.20
2019-03-15T00:42:21.842Z,9.20
2019-03-15T00:45:11.618Z,9.20
2019-03-15T00:48:00.466Z,9.10
2019-03-15T00:50:49.964Z,9.10
2019-03-15T00:53:38.927Z,9.10
2019-03-15T00:56:28.576Z,9.00
2019-03-15T00:59:17.271Z,9.00
2019-03-15T01:02:06.311Z,9.00
2019-03-15T01:04:55.767Z,8.90
2019-03-15T01:07:45.394Z,8.90
2019-03-15T01:10:35.401Z,8.90
2019-03-15T01:13:24.386Z,8.90
2019-03-15T01:16:13.390Z,8.90
2019-03-15T01:19:03.149Z,8.90
2019-03-15T01:21:52.587Z,8.90
2019-03-15T01:24:42.571Z,9.00
2019-03-15T01:27:32.531Z,8.90
2019-03-15T01:30:22.448Z,8.90
2019-03-15T01:33:11.615Z,8.80
2019-03-15T01:36:01.340Z,8.80
2019-03-15T01:38:51.939Z,8.80
2019-03-15T01:41:41.658Z,8.70
2019-03-15T01:44:31.192Z,8.70
2019-03-15T01:47:20.857Z,8.60
2019-03-15T01:50:09.982Z,8.60
2019-03-15T01:53:00.819Z,8.60
2019-03-15T01:55:51.367Z,8.60
2019-03-15T01:58:40.301Z,8.60
2019-03-15T02:01:30.777Z,8.60
2019-03-15T02:04:20.830Z,8.60
2019-03-15T02:07:09.508Z,8.60
2019-03-15T02:09:58.374Z,8.60
2019-03-15T02:12:48.054Z,8.60
2019-03-15T02:15:36.953Z,8.60
2019-03-15T02:18:25.608Z,8.60
2019-03-15T02:21:14.428Z,8.60
2019-03-15T02:24:04.431Z,8.60
2019-03-15T02:26:53.363Z,8.60
2019-03-15T02:29:43.407Z,8.60
2019-03-15T02:32:32.876Z,8.60
2019-03-15T02:35:22.389Z,8.70
2019-03-15T02:38:11.966Z,8.70
2019-03-15T02:41:01.654Z,8.70
2019-03-15T02:43:51.400Z,8.70
2019-03-15T02:46:40.312Z,8.70
2019-03-15T02:49:29.829Z,8.70
2019-03-15T02:52:19.306Z,8.70
2019-03-15T02:55:09.100Z,8.70
2019-03-15T02:57:58.838Z,8.70
2019-03-15T03:00:48.008Z,8.70
2019-03-15T03:03:37.213Z,8.70
2019-03-15T03:06:26.253Z,8.70
2019-03-15T03:09:15.428Z,8.80
2019-03-15T03:12:05.021Z,8.80
2019-03-15T03:14:54.481Z,8.80
2019-03-15T03:17:43.515Z,8.80
2019-03-15T03:20:33.391Z,8.80
2019-03-15T03:23:22.608Z,8.80
2019-03-15T03:26:13.459Z,8.80
2019-03-15T03:29:03.199Z,8.80
2019-03-15T03:31:52.130Z,8.80
2019-03-15T03:34:41.840Z,8.80
2019-03-15T03:37:31.751Z,8.80
2019-03-15T03:40:21.542Z,8.80
2019-03-15T03:43:11.059Z,8.80
2019-03-15T03:46:00.591Z,8.80
2019-03-15T03:48:49.821Z,8.80
2019-03-15T03:51:39.646Z,8.80
2019-03-15T03:54:28.646Z,8.80
2019-03-15T03:57:18.219Z,8.80
2019-03-15T04:00:08.013Z,8.80
2019-03-15T04:02:57.389Z,8.90
2019-03-15T04:05:47.303Z,8.90
2019-03-15T04:08:37.114Z,8.90
2019-03-15T04:11:26.953Z,8.90
2019-03-15T04:14:15.634Z,8.90
2019-03-15T04:17:05.211Z,8.90
2019-03-15T04:19:54.334Z,8.90
2019-03-15T04:22:44.110Z,8.90
2019-03-15T04:25:33.544Z,8.90
2019-03-15T04:28:22.399Z,8.90
2019-03-15T04:31:11.348Z,8.90
2019-03-15T04:34:00.235Z,8.90
2019-03-15T04:36:50.177Z,8.90
2019-03-15T04:39:40.137Z,8.90
2019-03-15T04:42:28.890Z,8.90
2019-03-15T04:45:17.517Z,8.90
2019-03-15T04:48:07.274Z,8.90
2019-03-15T04:50:56.043Z,8.90
2019-03-15T04:53:45.056Z,8.90
2019-03-15T04:56:34.825Z,8.90
2019-03-15T04:59:24.597Z,8.80
2019-03-15T05:02:15.296Z,8.80
2019-03-15T05:05:04.532Z,8.70
2019-03-15T05:07:54.369Z,8.70
2019-03-15T05:10:44.059Z,8.60
2019-03-15T05:13:33.022Z,8.60
2019-03-15T05:16:21.932Z,8.50
2019-03-15T05:19:11.788Z,8.50
2019-03-15T05:22:01.534Z,8.40
2019-03-15T05:24:51.326Z,8.40
2019-03-15T05:27:40.081Z,8.40
2019-03-15T05:30:30.047Z,8.40
2019-03-15T05:33:19.589Z,8.50
2019-03-15T05:36:09.341Z,8.50
2019-03-15T05:38:59.021Z,8.50
2019-03-15T05:41:48.714Z,8.50
2019-03-15T05:44:38.134Z,8.60
2019-03-15T05:47:27.615Z,8.60
2019-03-15T05:50:17.570Z,8.70
2019-03-15T05:53:07.210Z,8.70
2019-03-15T05:55:56.072Z,8.80
2019-03-15T05:58:45.711Z,8.80
2019-03-15T06:01:34.630Z,8.90
2019-03-15T06:04:24.188Z,9.00
2019-03-15T06:07:13.803Z,9.00
2019-03-15T06:10:03.791Z,9.10
2019-03-15T06:12:53.219Z,9.20
2019-03-15T06:15:42.876Z,9.20
2019-03-15T06:18:32.323Z,9.20
2019-03-15T06:21:22.132Z,9.30
2019-03-15T06:24:11.846Z,9.30
2019-03-15T06:27:01.920Z,9.40
2019-03-15T06:29:51.929Z,9.50
2019-03-15T06:32:41.709Z,9.60
2019-03-15T06:35:30.901Z,9.70
2019-03-15T06:38:20.510Z,9.80
2019-03-15T06:41:09.975Z,9.90
2019-03-15T06:43:58.962Z,10.00
2019-03-15T06:46:48.728Z,10.10
2019-03-15T06:49:37.911Z,10.20
2019-03-15T06:52:27.619Z,10.30
2019-03-15T06:55:17.938Z,10.40
2019-03-15T06:58:07.420Z,10.50
2019-03-15T07:00:57.413Z,10.60
2019-03-15T07:03:47.474Z,10.80
2019-03-15T07:06:36.470Z,11.10
2019-03-15T07:09:25.995Z,11.50
2019-03-15T07:12:15.493Z,11.90
2019-03-15T07:15:05.480Z,12.40
2019-03-15T07:17:54.184Z,12.90
2019-03-15T07:20:43.047Z,13.40
2019-03-15T07:23:32.065Z,13.90
2019-03-15T07:26:21.812Z,14.40
2019-03-15T07:29:11.563Z,14.80
2019-03-15T07:32:01.844Z,15.20
2019-03-15T07:34:51.607Z,15.40
2019-03-15T07:37:40.654Z,15.60
2019-03-15T07:40:29.579Z,15.70
2019-03-15T07:43:20.143Z,15.90
2019-03-15T07:46:11.306Z,16.00
2019-03-15T07:49:00.914Z,16.20
2019-03-15T07:51:49.761Z,16.40
2019-03-15T07:54:38.729Z,16.60
2019-03-15T07:57:28.702Z,16.80
2019-03-15T08:00:17.595Z,17.10
2019-03-15T08:03:07.438Z,17.30
2019-03-15T08:05:57.170Z,17.50
2019-03-15T08:08:46.661Z,17.70
2019-03-15T08:11:36.622Z,17.70
2019-03-15T08:14:26.186Z,17.60
2019-03-15T08:17:15.984Z,17.40
2019-03-15T08:20:05.491Z,17.20
2019-03-15T08:22:54.751Z,17.10
2019-03-15T08:25:43.780Z,17.00
2019-03-15T08:28:34.352Z,16.90
2019-03-15T08:31:24.100Z,16.80
2019-03-15T08:34:13.188Z,16.80
2019-03-15T08:37:01.980Z,16.70
2019-03-15T08:39:51.770Z,16.70
2019-03-15T08:42:41.067Z,16.70
2019-03-15T08:45:29.694Z,16.70
2019-03-15T08:48:19.273Z,16.60
2019-03-15T08:51:10.578Z,16.60
2019-03-15T08:53:58.761Z,16.50
2019-03-15T08:56:47.613Z,16.50
2019-03-15T08:59:37.678Z,16.40
2019-03-15T09:02:27.687Z,16.40
2019-03-15T09:05:16.738Z,16.30
2019-03-15T09:08:05.756Z,16.30
2019-03-15T09:10:55.475Z,16.30
2019-03-15T09:13:44.255Z,16.30
2019-03-15T09:16:33.735Z,16.40
2019-03-15T09:19:23.855Z,16.40
2019-03-15T09:22:12.687Z,16.50
2019-03-15T09:25:02.624Z,16.50
2019-03-15T09:27:51.419Z,16.50
2019-03-15T09:30:40.466Z,16.60
2019-03-15T09:33:31.494Z,16.60
2019-03-15T09:36:21.444Z,16.70
2019-03-15T09:39:11.171Z,16.70
2019-03-15T09:42:00.807Z,16.80
2019-03-15T09:44:50.343Z,16.80
2019-03-15T09:47:40.937Z,16.80
2019-03-15T09:50:40.081Z,17.00
2019-03-15T09:53:20.523Z,17.00
2019-03-15T09:56:10.112Z,17.10
2019-03-15T09:58:59.277Z,17.10
2019-03-15T10:01:49.470Z,17.20
2019-03-15T10:04:38.365Z,17.20
2019-03-15T10:07:37.845Z,17.20
2019-03-15T10:10:20.003Z,17.20
2019-03-15T10:13:08.925Z,17.20
2019-03-15T10:15:58.487Z,17.20
2019-03-15T10:18:50.439Z,17.30
2019-03-15T10:21:38.166Z,17.30
2019-03-15T10:24:27.852Z,17.30
2019-03-15T10:27:18.476Z,17.20
2019-03-15T10:30:10.154Z,17.10
2019-03-15T10:32:59.115Z,17.10
2019-03-15T10:35:48.590Z,17.00
2019-03-15T10:38:38.211Z,16.90
2019-03-15T10:41:27.915Z,16.90
2019-03-15T10:44:17.109Z,16.80
2019-03-15T10:47:05.867Z,16.80
2019-03-15T10:49:55.011Z,16.80
2019-03-15T10:52:45.054Z,16.90
2019-03-15T10:55:34.564Z,17.00
2019-03-15T10:58:23.347Z,17.00
2019-03-15T11:01:12.830Z,17.00
2019-03-15T11:04:02.341Z,17.00
2019-03-15T11:06:51.897Z,16.90
2019-03-15T11:09:41.764Z,17.00
2019-03-15T11:12:31.395Z,17.00
2019-03-15T11:15:20.528Z,17.00
2019-03-15T11:18:09.616Z,17.00
2019-03-15T11:20:59.197Z,17.00
2019-03-15T11:23:48.078Z,16.90
2019-03-15T11:26:36.796Z,16.80
2019-03-15T11:29:26.577Z,16.60
2019-03-15T11:32:16.064Z,16.50
2019-03-15T11:35:06.183Z,16.30
2019-03-15T11:37:57.092Z,16.20
2019-03-15T11:40:46.923Z,16.10
2019-03-15T11:43:36.539Z,16.00
2019-03-15T11:46:26.222Z,16.00
2019-03-15T11:49:15.957Z,15.90
2019-03-15T11:52:05.752Z,15.90
2019-03-15T11:54:55.540Z,15.80
2019-03-15T11:57:45.136Z,15.80
2019-03-15T12:00:34.784Z,15.70
2019-03-15T12:03:24.703Z,15.60
2019-03-15T12:06:14.683Z,15.50
2019-03-15T12:09:05.915Z,15.40
2019-03-15T12:11:55.412Z,15.30
2019-03-15T12:14:46.379Z,15.20
2019-03-15T12:17:36.148Z,15.10
2019-03-15T12:20:24.963Z,15.00
2019-03-15T12:23:16.423Z,14.90
2019-03-15T12:26:06.204Z,14.80
2019-03-15T12:28:55.983Z,14.70
2019-03-15T12:31:45.650Z,14.60
2019-03-15T12:34:35.091Z,14.60
2019-03-15T12:37:24.011Z,14.50
2019-03-15T12:40:14.252Z,14.40
2019-03-15T12:43:04.204Z,14.30
2019-03-15T12:45:53.396Z,14.30
2019-03-15T12:48:43.028Z,14.20
2019-03-15T12:51:32.538Z,14.20
2019-03-15T12:54:22.386Z,14.20
2019-03-15T12:57:11.921Z,14.10
2019-03-15T13:00:01.420Z,14.10
2019-03-15T13:02:50.938Z,14.00
2019-03-15T13:05:40.690Z,13.90
2019-03-15T13:08:29.508Z,13.90
2019-03-15T13:11:19.275Z,13.80
2019-03-15T13:14:08.668Z,13.70
2019-03-15T13:16:58.499Z,13.60
2019-03-15T13:19:55.086Z,13.50
2019-03-15T13:22:38.979Z,13.40
2019-03-15T13:25:28.654Z,13.30
2019-03-15T13:28:17.349Z,13.20
2019-03-15T13:31:06.875Z,13.20
2019-03-15T13:33:56.682Z,13.20
2019-03-15T13:36:46.138Z,13.20
2019-03-15T13:39:35.407Z,13.20
2019-03-15T13:42:24.911Z,13.20
2019-03-15T13:45:17.361Z,13.30
2019-03-15T13:48:13.715Z,13.40
2019-03-15T13:51:02.915Z,13.40
2019-03-15T13:53:52.758Z,13.40
2019-03-15T13:56:43.368Z,13.40
2019-03-15T13:59:33.187Z,13.40
2019-03-15T14:02:22.957Z,13.40
2019-03-15T14:05:19.843Z,13.40
2019-03-15T14:08:11.984Z,13.30
2019-03-15T14:10:59.420Z,13.30
2019-03-15T14:13:48.968Z,13.20
2019-03-15T14:16:38.432Z,13.20
2019-03-15T14:19:28.065Z,13.10
2019-03-15T14:22:17.114Z,13.10
2019-03-15T14:25:07.834Z,13.00
2019-03-15T14:27:57.588Z,12.90
2019-03-15T14:30:46.482Z,12.80
2019-03-15T14:33:36.228Z,12.70
2019-03-15T14:36:26.094Z,12.70
2019-03-15T14:39:15.676Z,12.70
2019-03-15T14:42:04.826Z,12.60
2019-03-15T14:44:55.612Z,12.60
2019-03-15T14:47:45.638Z,12.60
2019-03-15T14:50:35.624Z,12.60
2019-03-15T14:53:24.537Z,12.50
2019-03-15T14:56:13.507Z,12.50
2019-03-15T14:59:03.299Z,12.50
2019-03-15T15:01:52.853Z,12.50
2019-03-15T15:04:42.395Z,12.40
2019-03-15T15:07:32.240Z,12.40
2019-03-15T15:10:22.289Z,12.30
2019-03-15T15:13:12.980Z,12.30
2019-03-15T15:16:01.594Z,12.20
2019-03-15T15:18:51.357Z,12.30
2019-03-15T15:21:41.079Z,12.30
2019-03-15T15:24:30.608Z,12.30
2019-03-15T15:27:20.590Z,12.40
2019-03-15T15:30:10.814Z,12.30
2019-03-15T15:33:00.491Z,12.40
2019-03-15T15:35:50.658Z,12.40
2019-03-15T15:38:40.694Z,12.50
2019-03-15T15:41:29.468Z,12.50
2019-03-15T15:44:19.677Z,12.50
2019-03-15T15:47:09.930Z,12.50
2019-03-15T15:50:01.099Z,12.60
2019-03-15T15:52:50.113Z,12.60
2019-03-15T15:55:40.074Z,12.70
2019-03-15T15:58:29.206Z,12.70
2019-03-15T16:01:19.592Z,12.70
2019-03-15T16:04:09.126Z,12.70
2019-03-15T16:06:58.448Z,12.80
2019-03-15T16:09:47.745Z,12.80
2019-03-15T16:12:37.633Z,12.80
2019-03-15T16:15:27.058Z,12.80
2019-03-15T16:18:16.735Z,12.80
2019-03-15T16:21:06.560Z,12.90
2019-03-15T16:23:56.418Z,12.90
2019-03-15T16:26:45.456Z,12.90
2019-03-15T16:29:34.346Z,12.90
2019-03-15T16:32:23.418Z,12.90
2019-03-15T16:35:13.133Z,12.90
2019-03-15T16:38:02.054Z,12.90
2019-03-15T16:40:51.547Z,12.90
2019-03-15T16:43:40.349Z,12.90
2019-03-15T16:46:30.053Z,12.90
2019-03-15T16:49:19.535Z,12.90
2019-03-15T16:52:08.508Z,12.90
2019-03-15T16:54:58.149Z,12.90
2019-03-15T16:57:47.059Z,12.90
2019-03-15T17:00:37.540Z,12.90
2019-03-15T17:03:27.450Z,12.90
2019-03-15T17:06:17.250Z,12.90
2019-03-15T17:09:07.079Z,12.90
2019-03-15T17:11:56.740Z,13.00
2019-03-15T17:14:46.475Z,13.00
2019-03-15T17:17:38.352Z,13.00
2019-03-15T17:20:27.153Z,13.00
2019-03-15T17:23:15.913Z,13.00
2019-03-15T17:26:05.908Z,13.10
2019-03-15T17:28:58.793Z,13.10
2019-03-15T17:31:46.342Z,13.10
2019-03-15T17:34:35.974Z,13.10
2019-03-15T17:37:25.710Z,13.10
2019-03-15T17:40:15.614Z,13.10
2019-03-15T17:43:05.013Z,13.10
2019-03-15T17:45:54.537Z,13.10
2019-03-15T17:48:44.211Z,13.10
2019-03-15T17:51:33.967Z,13.10
2019-03-15T17:54:23.621Z,13.10
2019-03-15T17:57:13.324Z,13.10
2019-03-15T18:00:29.705Z,13.10
2019-03-15T18:03:21.885Z,13.10
2019-03-15T18:06:10.358Z,13.10
2019-03-15T18:09:02.011Z,13.10
2019-03-15T18:11:53.129Z,13.10
2019-03-15T18:14:42.751Z,13.10
2019-03-15T18:17:32.260Z,13.10
2019-03-15T18:20:21.565Z,13.10
2019-03-15T18:23:11.248Z,13.10
2019-03-15T18:26:00.223Z,13.10
2019-03-15T18:28:50.296Z,13.10
2019-03-15T18:31:40.110Z,13.10
2019-03-15T18:34:29.877Z,13.10
2019-03-15T18:37:18.889Z,13.10
2019-03-15T18:40:09.924Z,13.10
2019-03-15T18:42:59.832Z,13.10
2019-03-15T18:45:50.303Z,13.10
2019-03-15T18:48:39.876Z,13.10
2019-03-15T18:51:29.709Z,13.10
2019-03-15T18:54:19.622Z,13.10
2019-03-15T18:57:09.410Z,13.10
2019-03-15T18:59:58.267Z,13.10
2019-03-15T19:02:47.237Z,13.10
2019-03-15T19:05:36.966Z,13.10
2019-03-15T19:08:26.835Z,13.10
2019-03-15T19:11:16.548Z,13.10
2019-03-15T19:14:08.087Z,13.10
2019-03-15T19:17:00.140Z,13.10
2019-03-15T19:19:49.164Z,13.00
2019-03-15T19:22:39.384Z,13.00
2019-03-15T19:25:28.684Z,13.00
2019-03-15T19:28:18.625Z,13.00
2019-03-15T19:31:09.389Z,12.90
2019-03-15T19:33:59.423Z,12.90
2019-03-15T19:36:49.906Z,12.90
2019-03-15T19:39:40.771Z,12.90
2019-03-15T19:42:31.819Z,12.80
2019-03-15T19:45:22.612Z,12.80
2019-03-15T19:48:12.232Z,12.80
2019-03-15T19:51:01.186Z,12.70
2019-03-15T19:53:50.549Z,12.60
2019-03-15T19:56:39.811Z,12.60
2019-03-15T19:59:29.550Z,12.60
2019-03-15T20:02:23.416Z,12.50
2019-03-15T20:05:12.571Z,12.50
2019-03-15T20:08:04.637Z,12.40
2019-03-15T20:10:54.713Z,12.40
2019-03-15T20:13:44.764Z,12.30
2019-03-15T20:16:37.730Z,12.30
2019-03-15T20:19:27.051Z,12.20
2019-03-15T20:22:16.163Z,12.20
2019-03-15T20:25:07.372Z,12.10
2019-03-15T20:27:58.452Z,12.10
2019-03-15T20:30:52.100Z,12.00
2019-03-15T20:33:39.219Z,12.00
2019-03-15T20:36:28.162Z,12.00
2019-03-15T20:39:17.226Z,11.90
2019-03-15T20:42:06.251Z,11.80
2019-03-15T20:44:56.026Z,11.80
2019-03-15T20:47:45.831Z,11.80
2019-03-15T20:50:46.074Z,11.70
2019-03-15T20:53:25.282Z,11.70
2019-03-15T20:56:14.343Z,11.60
2019-03-15T20:59:04.450Z,11.60
2019-03-15T21:01:53.912Z,11.60
2019-03-15T21:04:42.740Z,11.50
2019-03-15T21:07:32.327Z,11.50
2019-03-15T21:10:22.166Z,11.50
2019-03-15T21:13:11.891Z,11.50
2019-03-15T21:16:01.864Z,11.40
2019-03-15T21:18:51.512Z,11.40
2019-03-15T21:21:40.140Z,11.40
2019-03-15T21:24:29.170Z,11.30
2019-03-15T21:27:18.955Z,11.30
2019-03-15T21:30:11.220Z,11.30
2019-03-15T21:33:00.794Z,11.30
2019-03-15T21:35:50.399Z,11.30
2019-03-15T21:38:48.232Z,11.30
2019-03-15T21:41:29.852Z,11.30
2019-03-15T21:44:19.994Z,11.30
2019-03-15T21:47:09.472Z,11.30
2019-03-15T21:49:58.973Z,11.30
2019-03-15T21:52:47.904Z,11.30
2019-03-15T21:55:37.038Z,11.30
2019-03-15T21:58:26.938Z,11.40
2019-03-15T22:01:16.811Z,11.30
2019-03-15T22:04:05.778Z,11.30
2019-03-15T22:06:55.582Z,11.30
2019-03-15T22:09:45.350Z,11.30
2019-03-15T22:12:34.212Z,11.30
2019-03-15T22:15:23.517Z,11.30
2019-03-15T22:18:13.416Z,11.30
2019-03-15T22:21:03.125Z,11.30
2019-03-15T22:23:51.919Z,11.30
2019-03-15T22:26:41.668Z,11.30
2019-03-15T22:29:31.491Z,11.20
2019-03-15T22:32:21.457Z,11.20
2019-03-15T22:35:11.425Z,11.20
2019-03-15T22:38:00.208Z,11.10
2019-03-15T22:40:49.079Z,11.10
2019-03-15T22:43:38.581Z,11.10
2019-03-15T22:46:28.156Z,11.10
2019-03-15T22:49:17.155Z,11.00
2019-03-15T22:52:06.960Z,11.10
2019-03-15T22:54:56.048Z,11.00
2019-03-15T22:57:59.186Z,11.00
2019-03-15T23:00:38.673Z,11.00
2019-03-15T23:03:28.708Z,11.00
2019-03-15T23:06:17.599Z,11.00
2019-03-15T23:09:12.795Z,11.00
2019-03-15T23:12:02.252Z,11.00
2019-03-15T23:14:52.496Z,11.00
2019-03-15T23:17:42.218Z,11.00
2019-03-15T23:20:31.221Z,10.90
2019-03-15T23:23:24.242Z,10.90
2019-03-15T23:26:12.743Z,10.90
2019-03-15T23:29:03.096Z,10.80
2019-03-15T23:31:53.659Z,10.80
2019-03-15T23:34:42.559Z,10.80
2019-03-15T23:37:31.678Z,10.70
2019-03-15T23:40:22.847Z,10.70
2019-03-15T23:43:12.644Z,10.60
2019-03-15T23:46:02.945Z,10.60
2019-03-15T23:48:53.370Z,10.50
2019-03-15T23:51:43.429Z,10.50
2019-03-15T23:54:33.342Z,10.50
2019-03-15T23:57:23.212Z,10.40
